Time;durP1;ratioP1;P1;durP2;ratioP2;P2;SDS_P1;SDS_P2;PMS_P1;PMS_P2;Temp;Humidity;BMP_temperature;BMP_pressure;BME280_temperature;BME280_humidity;BME280_pressure;Samples;Min_cycle;Max_cycle;Signal;HPM_P1;HPM_P2
2022/07/13 00:00:23;;;;;;;1.00;0.65;;;;;;;19.90;40.38;99689.00;4347255;33;34630;-81
2022/07/13 00:02:51;;;;;;;1.12;0.98;;;;;;;19.86;40.52;99687.44;4347709;33;35000;-82
2022/07/13 00:05:20;;;;;;;2.95;0.90;;;;;;;19.98;40.28;99691.34;4349776;33;35065;-82
2022/07/13 00:07:48;;;;;;;1.23;0.80;;;;;;;19.80;40.53;99685.94;4347811;33;34357;-81
2022/07/13 00:10:16;;;;;;;5.00;1.00;;;;;;;19.97;40.39;99693.09;4349453;33;34095;-81
2022/07/13 00:12:44;;;;;;;1.73;0.80;;;;;;;19.34;41.37;99695.72;4341379;33;35937;-81
2022/07/13 00:15:12;;;;;;;1.52;1.08;;;;;;;19.48;41.44;99693.41;4336132;33;35280;-81
2022/07/13 00:17:40;;;;;;;1.15;0.80;;;;;;;19.80;40.67;99693.84;4346286;33;33175;-81
2022/07/13 00:20:08;;;;;;;0.68;0.68;;;;;;;19.48;41.18;99688.13;4335982;33;33928;-82
2022/07/13 00:22:36;;;;;;;8.50;1.48;;;;;;;19.89;40.35;99688.16;4346631;33;35724;-81
2022/07/13 00:25:05;;;;;;;2.03;1.15;;;;;;;19.94;40.33;99693.25;4335988;33;35233;-81
2022/07/13 00:27:33;;;;;;;2.42;0.93;;;;;;;19.80;40.57;99687.69;4334438;33;33447;-81
2022/07/13 00:30:01;;;;;;;0.98;0.85;;;;;;;19.63;41.04;99683.13;4349419;33;34366;-82
2022/07/13 00:32:29;;;;;;;1.42;1.05;;;;;;;19.46;41.54;99692.59;4346420;33;36008;-81
2022/07/13 00:34:57;;;;;;;1.73;1.00;;;;;;;19.71;40.91;99688.91;4349239;33;34363;-81
2022/07/13 00:37:25;;;;;;;3.92;0.90;;;;;;;20.13;40.06;99688.00;4347527;33;34111;-81
2022/07/13 00:39:53;;;;;;;1.40;0.85;;;;;;;19.96;40.46;99687.87;4347703;33;34784;-82
2022/07/13 00:42:21;;;;;;;5.45;1.20;;;;;;;19.93;40.58;99680.13;4334453;33;35103;-82
2022/07/13 00:44:49;;;;;;;0.80;0.80;;;;;;;19.78;41.01;99673.69;4335906;33;34166;-82
2022/07/13 00:47:17;;;;;;;2.50;0.80;;;;;;;20.06;40.37;99671.53;4341551;33;33564;-85
2022/07/13 00:49:45;;;;;;;1.40;0.93;;;;;;;19.78;40.83;99663.97;4335819;33;34722;-82
2022/07/13 00:52:14;;;;;;;0.70;0.70;;;;;;;19.96;40.42;99664.09;4334232;33;35007;-82
2022/07/13 00:54:43;;;;;;;3.58;1.20;;;;;;;19.51;41.42;99666.00;4336087;33;34902;-82
2022/07/13 00:57:13;;;;;;;4.45;1.20;;;;;;;19.54;41.44;99660.59;4346238;33;33228;-81
2022/07/13 00:59:42;;;;;;;1.80;0.90;;;;;;;20.05;40.25;99653.97;4336047;33;34873;-82
2022/07/13 01:02:10;;;;;;;2.92;1.12;;;;;;;19.41;41.48;99654.09;4347147;33;35884;-82
2022/07/13 01:04:38;;;;;;;2.22;1.10;;;;;;;19.97;40.74;99653.44;4334267;33;34676;-82
2022/07/13 01:07:06;;;;;;;5.00;1.67;;;;;;;19.89;40.54;99651.16;4321297;33;33566;-82
2022/07/13 01:09:35;;;;;;;7.50;1.55;;;;;;;19.93;40.63;99658.97;4335843;33;33917;-82
2022/07/13 01:12:05;;;;;;;2.20;1.30;;;;;;;19.99;40.60;99656.88;4334061;33;34914;-82
2022/07/13 01:14:34;;;;;;;3.05;1.30;;;;;;;20.23;40.24;99662.00;4349355;33;33858;-82
2022/07/13 01:17:04;;;;;;;2.58;1.23;;;;;;;19.72;41.16;99664.22;4329788;33;34217;-82
2022/07/13 01:19:33;;;;;;;4.87;1.17;;;;;;;19.66;41.49;99656.56;4333496;33;34214;-82
2022/07/13 01:22:03;;;;;;;1.40;1.20;;;;;;;20.36;40.00;99659.66;4324215;33;35120;-81
2022/07/13 01:24:31;;;;;;;2.35;1.08;;;;;;;19.62;41.49;99658.47;4335687;33;34382;-82
2022/07/13 01:27:00;;;;;;;2.97;1.30;;;;;;;19.76;41.36;99660.53;4334413;33;34183;-81
2022/07/13 01:29:28;;;;;;;1.60;1.17;;;;;;;19.95;40.85;99655.31;4330021;33;33799;-82
2022/07/13 01:32:02;;;;;;;7.05;1.83;;;;;;;19.49;41.92;99652.84;4348595;33;35036;-81
2022/07/13 01:34:30;;;;;;;1.20;1.10;;;;;;;19.48;41.86;99647.62;4319747;33;35189;-82
2022/07/13 01:36:58;;;;;;;2.25;1.17;;;;;;;19.58;41.72;99654.25;4334977;33;34161;-82
2022/07/13 01:39:26;;;;;;;2.42;1.10;;;;;;;19.71;41.54;99649.28;4332937;33;32245;-82
2022/07/13 01:41:54;;;;;;;2.25;1.20;;;;;;;19.88;41.16;99643.31;4348608;33;34625;-82
2022/07/13 01:44:22;;;;;;;2.25;1.10;;;;;;;19.41;42.15;99648.81;4334331;33;34399;-82
2022/07/13 01:46:49;;;;;;;3.42;1.17;;;;;;;19.27;42.76;99641.47;4348830;33;33580;-82
2022/07/13 01:49:18;;;;;;;2.85;1.23;;;;;;;19.21;42.69;99637.31;4334304;33;33816;-82
2022/07/13 01:51:46;;;;;;;3.65;1.40;;;;;;;18.98;43.45;99634.75;4347437;33;34969;-82
2022/07/13 01:54:13;;;;;;;2.10;1.27;;;;;;;19.03;43.54;99638.94;4347402;33;34384;-81
2022/07/13 01:56:42;;;;;;;2.42;1.60;;;;;;;19.18;43.06;99637.44;4349115;33;33348;-82
2022/07/13 01:59:10;;;;;;;2.15;1.27;;;;;;;19.23;42.93;99632.81;4332538;33;33801;-81
2022/07/13 02:01:38;;;;;;;2.78;1.48;;;;;;;19.04;43.52;99622.19;4333988;33;35145;-81
2022/07/13 02:04:06;;;;;;;2.85;1.33;;;;;;;18.89;44.12;99628.06;4346747;33;35300;-81
2022/07/13 02:06:34;;;;;;;2.17;1.30;;;;;;;18.63;44.43;99635.19;4335453;33;33330;-81
2022/07/13 02:09:03;;;;;;;2.33;1.40;;;;;;;18.86;44.15;99621.13;4346977;33;33983;-81
2022/07/13 02:11:31;;;;;;;3.80;1.20;;;;;;;18.76;44.42;99631.19;4348768;33;34994;-81
2022/07/13 02:13:59;;;;;;;3.72;1.48;;;;;;;18.77;44.32;99627.59;4333648;33;33794;-82
2022/07/13 02:16:28;;;;;;;5.35;1.40;;;;;;;18.96;44.16;99631.34;4348676;33;34375;-82
2022/07/13 02:18:57;;;;;;;2.72;1.52;;;;;;;18.60;44.92;99632.72;4347333;33;33820;-82
2022/07/13 02:21:25;;;;;;;4.57;1.60;;;;;;;18.68;44.96;99632.41;4335206;33;35213;-82
2022/07/13 02:23:53;;;;;;;2.90;1.30;;;;;;;18.55;45.02;99632.03;4346884;33;34428;-82
2022/07/13 02:26:21;;;;;;;2.30;1.15;;;;;;;18.65;44.89;99636.00;4348512;33;33363;-82
2022/07/13 02:28:49;;;;;;;1.73;1.30;;;;;;;18.63;44.91;99631.72;4347038;33;34003;-82
2022/07/13 02:31:19;;;;;;;3.78;1.55;;;;;;;18.64;45.11;99633.44;4348754;33;34969;-82
2022/07/13 02:33:47;;;;;;;4.20;2.15;;;;;;;18.64;45.08;99641.34;4334061;33;34440;-82
2022/07/13 02:36:15;;;;;;;2.15;1.25;;;;;;;18.76;44.74;99631.19;4344870;33;33034;-82
2022/07/13 02:38:42;;;;;;;2.37;1.30;;;;;;;18.64;45.16;99629.03;4346161;33;33932;-82
2022/07/13 02:41:10;;;;;;;3.00;1.40;;;;;;;18.58;44.91;99637.16;4346939;33;35954;-82
2022/07/13 02:43:38;;;;;;;3.35;1.50;;;;;;;18.88;44.50;99629.00;4346552;33;34217;-82
2022/07/13 02:46:06;;;;;;;2.92;1.52;;;;;;;18.32;45.78;99630.28;4348378;33;33099;-82
2022/07/13 02:48:34;;;;;;;4.07;1.40;;;;;;;18.19;45.88;99632.50;4346067;33;33948;-82
2022/07/13 02:51:02;;;;;;;2.28;1.40;;;;;;;18.72;44.49;99626.94;4335002;33;34875;-82
2022/07/13 02:53:30;;;;;;;3.78;1.10;;;;;;;18.31;45.65;99626.75;4346545;33;34614;-82
2022/07/13 02:55:58;;;;;;;3.50;1.40;;;;;;;18.23;45.73;99626.22;4347077;33;34331;-82
2022/07/13 02:58:27;;;;;;;4.78;1.58;;;;;;;18.58;45.06;99626.59;4346648;33;33974;-81
2022/07/13 03:00:55;;;;;;;3.58;1.48;;;;;;;18.75;44.19;99626.81;4348032;33;35230;-82
2022/07/13 03:03:23;;;;;;;1.92;1.20;;;;;;;18.89;43.70;99628.94;4333304;33;33852;-84
2022/07/13 03:05:52;;;;;;;3.12;1.48;;;;;;;18.44;44.91;99634.19;4327761;33;34270;-81
2022/07/13 03:08:20;;;;;;;1.65;1.30;;;;;;;18.65;44.22;99637.78;4337415;33;33238;-83
2022/07/13 03:10:48;;;;;;;2.37;1.25;;;;;;;18.48;44.64;99630.53;4347801;33;35286;-83
2022/07/13 03:13:17;;;;;;;1.40;1.08;;;;;;;18.67;44.06;99631.53;4339645;33;34757;-82
2022/07/13 03:15:45;;;;;;;3.22;1.33;;;;;;;18.97;43.73;99633.03;4334851;33;34223;-83
2022/07/13 03:18:13;;;;;;;2.70;1.20;;;;;;;18.60;44.36;99630.06;4331148;33;33845;-82
2022/07/13 03:20:42;;;;;;;2.72;1.30;;;;;;;18.18;45.54;99622.88;4346239;33;35926;-85
2022/07/13 03:23:10;;;;;;;3.00;1.55;;;;;;;18.24;45.41;99633.19;4346244;33;33979;-84
2022/07/13 03:25:38;;;;;;;2.47;1.27;;;;;;;18.43;45.21;99630.72;4347809;33;34180;-81
2022/07/13 03:28:06;;;;;;;1.50;1.20;;;;;;;18.42;45.20;99626.34;4346228;33;34676;-82
2022/07/13 03:30:34;;;;;;;2.87;1.45;;;;;;;18.76;44.49;99630.31;4332903;33;35089;-84
2022/07/13 03:33:02;;;;;;;2.17;1.50;;;;;;;18.72;44.43;99632.22;4332866;33;34436;-84
2022/07/13 03:35:30;;;;;;;2.50;1.23;;;;;;;18.53;44.85;99640.00;4334498;33;33233;-85
2022/07/13 03:37:58;;;;;;;2.15;1.33;;;;;;;18.49;45.20;99632.25;4346284;33;34041;-85
2022/07/13 03:40:27;;;;;;;6.22;2.15;;;;;;;18.59;44.99;99633.63;4347746;33;35829;-84
2022/07/13 03:42:55;;;;;;;5.47;1.50;;;;;;;18.74;44.42;99638.28;4345859;33;33963;-82
2022/07/13 03:45:24;;;;;;;2.42;1.67;;;;;;;18.51;45.11;99639.19;4347650;33;33431;-82
2022/07/13 03:47:52;;;;;;;2.30;1.45;;;;;;;19.06;44.43;99637.94;4332348;33;33906;-82
2022/07/13 03:50:21;;;;;;;2.50;1.45;;;;;;;18.70;45.10;99634.03;4346308;33;34995;-84
2022/07/13 03:52:49;;;;;;;3.20;1.20;;;;;;;19.14;44.07;99636.69;4344526;33;34401;-84
2022/07/13 03:55:18;;;;;;;2.17;1.30;;;;;;;18.95;44.50;99633.09;4347298;33;33322;-82
2022/07/13 03:57:47;;;;;;;2.03;1.40;;;;;;;19.12;44.32;99632.41;4345902;33;33500;-81
2022/07/13 04:00:15;;;;;;;3.87;1.58;;;;;;;18.96;44.37;99636.63;4347817;33;35805;-84
2022/07/13 04:02:45;;;;;;;9.05;1.52;;;;;;;18.90;44.31;99632.41;4346834;33;34058;-82
2022/07/13 04:05:13;;;;;;;5.47;1.37;;;;;;;19.31;43.80;99637.78;4348246;33;33390;-86
2022/07/13 04:07:42;;;;;;;1.52;1.10;;;;;;;19.55;43.08;99640.31;4333214;33;34334;-84
2022/07/13 04:10:10;;;;;;;3.22;1.23;;;;;;;19.64;42.96;99635.50;4344358;33;35218;-85
2022/07/13 04:12:41;;;;;;;5.62;2.03;;;;;;;19.57;43.30;99641.09;4348867;33;35317;-82
2022/07/13 04:15:10;;;;;;;5.57;1.70;;;;;;;19.37;43.50;99639.31;4319774;33;33139;-87
2022/07/13 04:17:40;;;;;;;3.67;1.40;;;;;;;19.46;43.48;99638.91;4319041;33;34144;-83
2022/07/13 04:20:09;;;;;;;2.37;1.50;;;;;;;19.33;43.79;99633.31;4335201;33;35054;-85
2022/07/13 04:22:38;;;;;;;2.22;1.42;;;;;;;19.78;42.57;99628.78;4349533;33;34945;-86
2022/07/13 04:25:06;;;;;;;2.33;1.27;;;;;;;20.20;41.59;99625.97;4323590;33;32012;-86
2022/07/13 04:27:34;;;;;;;2.15;1.25;;;;;;;19.97;42.07;99631.47;4348137;33;34859;-85
2022/07/13 04:30:03;;;;;;;3.40;1.37;;;;;;;19.83;42.48;99640.84;4348126;33;35788;-89
2022/07/13 04:32:31;;;;;;;1.83;1.10;;;;;;;20.03;42.20;99639.09;4336168;33;34039;-87
2022/07/13 04:34:59;;;;;;;3.17;1.15;;;;;;;20.41;41.22;99641.78;4346074;33;33389;-84
2022/07/13 04:37:27;;;;;;;3.53;1.33;;;;;;;20.16;41.63;99642.91;4349275;33;33860;-86
2022/07/13 04:39:55;;;;;;;2.08;1.20;;;;;;;20.57;40.66;99637.50;4347529;33;34955;-84
2022/07/13 04:42:23;;;;;;;3.62;1.50;;;;;;;20.10;41.73;99643.22;4348843;33;34460;-85
2022/07/13 04:44:52;;;;;;;2.30;1.37;;;;;;;20.45;41.46;99638.06;4327302;33;34136;-83
2022/07/13 04:47:19;;;;;;;2.22;1.45;;;;;;;20.88;40.50;99636.06;4329321;33;32979;-82
2022/07/13 04:49:48;;;;;;;2.17;1.48;;;;;;;21.27;39.82;99635.03;4332158;33;35017;-87
2022/07/13 04:52:16;;;;;;;1.55;1.00;;;;;;;21.45;39.87;99641.19;4321230;33;35079;-81
2022/07/13 04:54:44;;;;;;;1.95;1.20;;;;;;;21.77;38.63;99650.16;4343804;33;33527;-85
2022/07/13 04:57:12;;;;;;;3.50;1.20;;;;;;;21.55;38.96;99645.13;4349082;33;33935;-84
2022/07/13 04:59:40;;;;;;;1.62;1.15;;;;;;;21.67;38.46;99645.41;4347363;33;35052;-84
2022/07/13 05:02:09;;;;;;;2.67;1.50;;;;;;;21.76;38.35;99650.25;4347597;33;34029;-86
2022/07/13 05:04:37;;;;;;;1.10;1.00;;;;;;;21.76;38.36;99642.31;4347162;33;33539;-84
2022/07/13 05:07:05;;;;;;;3.25;1.30;;;;;;;22.06;36.83;99639.81;4342074;33;33951;-85
2022/07/13 05:09:34;;;;;;;1.37;1.15;;;;;;;21.39;38.27;99642.34;4346052;33;35768;-86
2022/07/13 05:12:03;;;;;;;1.48;0.90;;;;;;;21.76;38.72;99653.75;4334943;33;34663;-85
2022/07/13 05:14:32;;;;;;;1.77;1.02;;;;;;;21.97;37.77;99642.94;4347618;33;34160;-86
2022/07/13 05:16:59;;;;;;;4.03;1.00;;;;;;;22.47;36.53;99651.81;4335821;33;34745;-84
2022/07/13 05:19:27;;;;;;;1.60;1.10;;;;;;;22.21;36.69;99643.44;4347217;33;35026;-84
2022/07/13 05:21:56;;;;;;;2.15;1.00;;;;;;;22.05;36.84;99651.34;4348822;33;34488;-82
2022/07/13 05:24:25;;;;;;;3.08;2.25;;;;;;;22.32;36.68;99653.50;4332729;33;33225;-82
2022/07/13 05:26:53;;;;;;;3.05;1.17;;;;;;;22.30;36.72;99656.22;4334548;33;34799;-82
2022/07/13 05:29:22;;;;;;;1.27;1.00;;;;;;;22.53;36.61;99649.66;4347348;33;35761;-85
2022/07/13 05:31:49;;;;;;;3.40;1.52;;;;;;;22.86;35.91;99648.72;4347970;33;33991;-85
2022/07/13 05:34:17;;;;;;;2.15;1.42;;;;;;;22.67;36.83;99645.38;4333853;33;32978;-88
2022/07/13 05:36:46;;;;;;;1.80;1.10;;;;;;;23.02;36.32;99645.19;4346863;33;33872;-81
2022/07/13 05:39:14;;;;;;;2.00;1.45;;;;;;;23.07;35.56;99646.66;4334168;33;34487;-82
2022/07/13 05:41:42;;;;;;;3.03;1.20;;;;;;;23.17;35.68;99654.09;4335657;33;35120;-82
2022/07/13 05:44:10;;;;;;;2.67;1.37;;;;;;;23.16;36.03;99647.94;4333304;33;34389;-82
2022/07/13 05:46:38;;;;;;;2.20;1.20;;;;;;;23.51;35.47;99649.47;4348798;33;34770;-81
2022/07/13 05:49:06;;;;;;;2.47;1.37;;;;;;;23.79;35.16;99653.97;4346341;33;35436;-82
2022/07/13 05:51:35;;;;;;;3.60;1.23;;;;;;;23.18;36.17;99658.47;4347484;33;34046;-82
2022/07/13 05:54:03;;;;;;;2.92;1.35;;;;;;;23.13;37.18;99650.78;4322258;33;32554;-81
2022/07/13 05:56:51;;;;;;;2.12;1.23;;;;;;;23.45;36.31;99650.69;4348844;33;34114;-82
2022/07/13 05:59:19;;;;;;;1.80;1.20;;;;;;;23.48;36.15;99650.50;4347172;33;35912;-81
2022/07/13 06:01:47;;;;;;;1.58;1.12;;;;;;;23.78;35.18;99654.94;4348674;33;34425;-83
2022/07/13 06:04:16;;;;;;;8.05;2.42;;;;;;;24.05;35.05;99649.75;4347201;33;33451;-81
2022/07/13 06:06:45;;;;;;;2.87;1.37;;;;;;;24.18;34.55;99649.87;4348723;33;33956;-88
2022/07/13 06:09:12;;;;;;;2.37;1.37;;;;;;;24.17;36.07;99654.31;4340239;33;36059;-80
2022/07/13 06:11:41;;;;;;;3.67;1.48;;;;;;;24.90;33.84;99652.44;4348616;33;34316;-82
2022/07/13 06:14:09;;;;;;;3.22;1.60;;;;;;;25.16;33.19;99648.06;4346739;33;33467;-83
2022/07/13 06:16:37;;;;;;;8.40;1.50;;;;;;;24.89;34.13;99645.41;4335566;33;34759;-85
2022/07/13 06:19:05;;;;;;;4.10;1.17;;;;;;;24.72;33.47;99649.16;4333891;33;34963;-83
2022/07/13 06:21:33;;;;;;;1.50;1.25;;;;;;;25.19;32.73;99644.34;4332849;33;34017;-86
2022/07/13 06:24:01;;;;;;;3.50;1.50;;;;;;;25.92;32.50;99654.50;4336300;33;34197;-82
2022/07/13 06:26:31;;;;;;;2.97;1.50;;;;;;;25.95;33.00;99664.16;4347421;33;33935;-82
2022/07/13 06:28:58;;;;;;;5.37;2.30;;;;;;;26.22;31.67;99659.53;4346574;33;34982;-83
2022/07/13 06:31:26;;;;;;;3.37;1.92;;;;;;;26.47;30.55;99668.47;4348196;33;34721;-84
2022/07/13 06:33:55;;;;;;;2.37;1.52;;;;;;;26.19;31.84;99665.09;4346818;33;33443;-83
2022/07/13 06:36:22;;;;;;;2.95;1.90;;;;;;;25.96;32.33;99661.38;4347395;33;33495;-83
2022/07/13 06:38:50;;;;;;;6.93;4.60;;;;;;;25.58;33.24;99656.81;4346244;33;34945;-83
2022/07/13 06:41:19;;;;;;;5.95;2.90;;;;;;;25.73;33.63;99663.78;4347722;33;35254;-83
2022/07/13 06:43:47;;;;;;;28.08;11.98;;;;;;;26.18;33.11;99652.69;4344864;33;33891;-83
2022/07/13 06:46:14;;;;;;;20.45;2.22;;;;;;;26.59;32.20;99656.88;4346351;33;33964;-83
2022/07/13 06:48:48;;;;;;;2.40;1.48;;;;;;;27.22;31.35;99656.78;4347013;33;35102;-83
2022/07/13 06:51:16;;;;;;;1.98;1.23;;;;;;;26.82;32.07;99665.09;4348121;33;34473;-83
2022/07/13 06:53:44;;;;;;;4.68;1.60;;;;;;;26.94;31.62;99672.19;4346726;33;34368;-83
2022/07/13 06:56:12;;;;;;;3.53;1.42;;;;;;;27.83;29.87;99674.50;4335212;33;34889;-83
2022/07/13 06:58:40;;;;;;;2.28;1.27;;;;;;;27.30;30.81;99681.19;4317837;33;34898;-87
2022/07/13 07:01:09;;;;;;;5.47;1.20;;;;;;;27.59;30.68;99678.94;4347654;33;34348;-90
2022/07/13 07:03:38;;;;;;;7.37;2.87;;;;;;;27.62;31.61;99675.22;4333389;33;33360;-88
2022/07/13 07:06:06;;;;;;;6.40;1.83;;;;;;;28.45;29.00;99674.09;4321435;33;34604;-86
2022/07/13 07:08:34;;;;;;;3.33;1.20;;;;;;;28.53;29.53;99668.97;4346706;33;35030;-82
2022/07/13 07:11:02;;;;;;;3.08;1.20;;;;;;;28.17;29.75;99667.41;4347439;33;33712;-87
2022/07/13 07:13:30;;;;;;;1.92;1.10;;;;;;;28.46;29.33;99665.06;4346442;33;34377;-82
2022/07/13 07:15:59;;;;;;;3.78;1.20;;;;;;;29.32;28.50;99665.28;4333203;33;33604;-83
2022/07/13 07:18:27;;;;;;;1.00;0.90;;;;;;;28.98;28.10;99662.72;4347991;33;35787;-79
2022/07/13 07:20:55;;;;;;;3.22;1.00;;;;;;;29.08;27.73;99673.50;4345034;33;34014;-85
2022/07/13 07:23:23;;;;;;;2.35;1.20;;;;;;;29.38;27.71;99666.59;4347792;33;33295;-82
2022/07/13 07:25:51;;;;;;;3.72;1.30;;;;;;;28.82;28.94;99668.47;4344840;33;33705;-82
2022/07/13 07:28:19;;;;;;;1.58;0.95;;;;;;;28.57;29.39;99658.03;4345285;33;35859;-82
2022/07/13 07:30:47;;;;;;;3.97;1.10;;;;;;;28.74;28.10;99660.19;4344911;33;34424;-82
2022/07/13 07:33:15;;;;;;;2.62;1.08;;;;;;;28.60;29.28;99652.44;4318385;33;34351;-86
2022/07/13 07:35:43;;;;;;;3.12;1.10;;;;;;;28.95;28.15;99651.37;4341935;33;34075;-84
2022/07/13 07:38:11;;;;;;;2.45;1.10;;;;;;;28.78;29.41;99644.72;4336415;33;33860;-85
2022/07/13 07:40:39;;;;;;;1.77;1.08;;;;;;;28.93;28.58;99649.66;4347913;33;35291;-83
2022/07/13 07:43:07;;;;;;;3.53;1.20;;;;;;;28.38;29.14;99646.09;4345962;33;33494;-82
2022/07/13 07:45:35;;;;;;;0.98;0.80;;;;;;;28.47;28.66;99637.31;4333817;33;34743;-86
2022/07/13 07:48:04;;;;;;;3.65;1.75;;;;;;;29.27;28.44;99640.69;4349509;33;35904;-83
2022/07/13 07:50:31;;;;;;;3.40;1.20;;;;;;;29.25;28.38;99627.41;4347855;33;34427;-80
2022/07/13 07:52:59;;;;;;;4.87;1.20;;;;;;;29.02;29.45;99641.84;4349514;33;33473;-88
2022/07/13 07:55:28;;;;;;;1.77;1.20;;;;;;;29.84;27.56;99641.22;4334678;33;33833;-82
2022/07/13 07:57:56;;;;;;;2.00;1.03;;;;;;;29.59;26.83;99634.41;4341726;33;253945;-81
2022/07/13 08:00:24;;;;;;;2.42;1.10;;;;;;;31.17;25.84;99638.44;4345017;33;34351;-82
2022/07/13 08:02:52;;;;;;;1.98;1.15;;;;;;;30.95;26.22;99644.91;4349196;33;34311;-80
2022/07/13 08:05:21;;;;;;;3.00;1.27;;;;;;;31.44;24.98;99639.53;4344794;33;34021;-80
2022/07/13 08:07:49;;;;;;;1.45;0.90;;;;;;;30.71;27.51;99637.19;4324093;33;34331;-80
2022/07/13 08:10:18;;;;;;;17.87;2.80;;;;;;;31.06;26.62;99630.47;4322690;33;35284;-80
2022/07/13 08:12:56;;;;;;;3.80;1.25;;;;;;;31.53;25.25;99636.84;4349356;33;33428;-80
2022/07/13 08:15:27;;;;;;;3.83;1.15;;;;;;;31.62;26.30;99628.91;4340956;33;34777;-81
2022/07/13 08:17:56;;;;;;;1.25;0.77;;;;;;;31.28;26.22;99618.59;4333597;33;34930;-80
2022/07/13 08:20:24;;;;;;;1.87;1.00;;;;;;;31.14;26.09;99627.94;4327086;33;35183;-83
2022/07/13 08:22:52;;;;;;;1.33;1.20;;;;;;;31.43;25.92;99622.56;4320247;33;34241;-80
2022/07/13 08:25:21;;;;;;;3.28;0.98;;;;;;;30.78;26.58;99627.63;4339810;33;33908;-81
2022/07/13 08:27:51;;;;;;;5.05;1.12;;;;;;;30.99;26.65;99620.31;4335462;33;36016;-86
2022/07/13 08:30:20;;;;;;;3.15;2.17;;;;;;;31.59;26.21;99622.00;4333944;33;34541;-83
2022/07/13 08:32:48;;;;;;;2.00;1.00;;;;;;;30.65;27.83;99611.72;4347421;33;33184;-86
2022/07/13 08:41:09;;;;;;;2.08;1.35;;;;;;;31.27;25.30;99622.25;4286894;33;34487;-86
2022/07/13 08:43:37;;;;;;;3.90;1.10;;;;;;;31.18;26.89;99611.38;4276589;33;34045;-86
2022/07/13 08:46:08;;;;;;;4.35;1.30;;;;;;;31.62;25.17;99615.44;4316472;33;33868;-87
2022/07/13 08:48:38;;;;;;;5.12;1.42;;;;;;;31.07;26.89;99606.13;4346822;33;34418;-87
2022/07/13 08:51:06;;;;;;;1.83;1.05;;;;;;;31.59;25.69;99604.97;4347429;33;34087;-84
2022/07/13 08:53:38;;;;;;;4.60;1.10;;;;;;;30.52;26.95;99595.88;4349184;33;34143;-85
2022/07/13 08:56:28;;;;;;;3.95;1.15;;;;;;;30.58;26.42;99589.09;4347493;33;33692;-85
2022/07/13 08:58:57;;;;;;;6.40;1.20;;;;;;;30.37;27.68;99602.59;4348873;33;35828;-84
2022/07/13 09:01:26;;;;;;;8.57;1.60;;;;;;;30.55;26.10;99594.72;4347178;33;34145;-88
2022/07/13 09:03:56;;;;;;;3.40;1.65;;;;;;;30.27;26.40;99607.94;4347063;33;33984;-86
2022/07/13 09:06:48;;;;;;;3.30;1.10;;;;;;;30.55;26.41;99605.47;4342656;33;33631;-87
2022/07/13 09:09:49;;;;;;;4.93;0.95;;;;;;;30.77;26.46;99605.22;4333353;33;35979;-86
2022/07/13 09:12:35;;;;;;;5.95;1.00;;;;;;;31.02;26.24;99597.63;4333574;33;35310;-87
2022/07/13 09:15:06;;;;;;;4.90;1.08;;;;;;;31.21;25.06;99598.63;4347148;33;33322;-81
2022/07/13 09:17:43;;;;;;;1.90;1.10;;;;;;;30.21;26.45;99603.97;4348934;33;34792;-87
2022/07/13 09:20:18;;;;;;;8.32;1.10;;;;;;;30.50;26.37;99584.41;4333921;33;34990;-83
2022/07/13 09:22:46;;;;;;;9.13;1.33;;;;;;;30.53;26.24;99588.66;4347262;33;34412;-87
2022/07/13 09:25:44;;;;;;;2.15;1.33;;;;;;;30.77;25.71;99575.66;4342549;33;33666;-86
2022/07/13 09:28:13;;;;;;;5.20;1.30;;;;;;;31.48;24.71;99574.50;4333770;33;33944;-88
2022/07/13 09:30:42;;;;;;;5.80;1.37;;;;;;;31.77;24.96;99581.69;4334012;33;36004;-85
2022/07/13 09:33:10;;;;;;;2.78;1.58;;;;;;;31.28;25.18;99597.06;4333702;33;34056;-84
2022/07/13 09:35:44;;;;;;;1.48;0.90;;;;;;;31.58;24.90;99595.22;4347134;33;33472;-83
2022/07/13 09:38:32;;;;;;;3.10;0.90;;;;;;;31.90;23.96;99594.81;4348720;33;34532;-89
2022/07/13 09:41:23;;;;;;;1.15;0.75;;;;;;;32.03;24.60;99598.03;4347217;33;35020;-92
2022/07/13 09:46:51;;;;;;;7.93;1.10;;;;;;;31.53;23.82;99606.41;4335999;33;33482;-88
2022/07/13 09:49:35;;;;;;;6.07;0.90;;;;;;;31.68;23.90;99604.09;4349128;33;33888;-84
2022/07/13 09:52:05;;;;;;;4.25;1.10;;;;;;;32.23;23.60;99588.03;4326416;33;35744;-89
2022/07/13 09:54:37;;;;;;;3.42;0.90;;;;;;;32.05;23.54;99585.28;4333470;33;34960;-89
2022/07/13 09:57:10;;;;;;;5.93;1.00;;;;;;;32.13;23.57;99581.84;4348672;33;33187;-86
2022/07/13 09:59:40;;;;;;;7.72;1.00;;;;;;;31.66;23.69;99584.53;4346860;33;34663;-88
2022/07/13 10:02:08;;;;;;;4.32;1.17;;;;;;;32.41;23.49;99571.06;4347109;33;34200;-87
2022/07/13 10:04:38;;;;;;;0.85;0.62;;;;;;;32.51;23.70;99571.84;4346855;33;34539;-89
2022/07/13 10:07:21;;;;;;;1.05;0.70;;;;;;;32.30;22.06;99558.66;4337147;33;34353;-82
2022/07/13 10:09:50;;;;;;;3.15;2.53;;;;;;;32.21;24.29;99576.56;4326211;33;33693;-80
2022/07/13 10:12:19;;;;;;;8.02;1.10;;;;;;;31.91;23.44;99577.69;4335255;33;35009;-88
2022/07/13 10:14:47;;;;;;;2.25;1.02;;;;;;;32.18;23.96;99567.94;4333645;33;35221;-84
2022/07/13 10:17:22;;;;;;;3.25;0.90;;;;;;;32.38;23.16;99558.72;4334392;33;33549;-84
2022/07/13 10:20:05;;;;;;;9.68;2.28;;;;;;;32.04;24.21;99555.78;4333260;33;33611;-87
2022/07/13 10:22:45;;;;;;;3.37;1.40;;;;;;;31.71;24.76;99555.34;4333131;33;35051;-85
2022/07/13 10:25:16;;;;;;;5.03;1.17;;;;;;;32.01;23.69;99567.69;4344708;33;35325;-88
2022/07/13 10:27:44;;;;;;;3.03;0.80;;;;;;;32.39;23.08;99559.59;4335502;33;32220;-85
2022/07/13 10:30:18;;;;;;;1.35;1.00;;;;;;;32.67;22.13;99546.94;4333730;33;33924;-86
2022/07/13 10:32:47;;;;;;;5.20;1.30;;;;;;;32.03;23.70;99559.44;4348463;33;34987;-87
2022/07/13 10:35:17;;;;;;;1.52;1.02;;;;;;;32.65;23.11;99555.19;4346804;33;35343;-85
2022/07/13 10:38:00;;;;;;;5.93;1.17;;;;;;;32.94;23.25;99551.37;4348230;33;33499;-86
2022/07/13 10:40:32;;;;;;;6.20;0.82;;;;;;;32.14;24.19;99545.84;4345845;33;34052;-85
2022/07/13 10:43:01;;;;;;;4.47;1.48;;;;;;;32.66;23.17;99561.41;4348288;33;35055;-83
2022/07/13 10:45:44;;;;;;;2.05;1.17;;;;;;;32.63;23.47;99557.19;4346102;33;34523;-85
2022/07/13 10:48:24;;;;;;;4.87;1.35;;;;;;;31.48;24.27;99547.59;4348110;33;33425;-85
2022/07/13 10:50:55;;;;;;;1.02;0.75;;;;;;;32.24;23.19;99551.16;4345174;33;34070;-85
2022/07/13 10:53:39;;;;;;;3.95;1.20;;;;;;;32.37;22.57;99551.66;4346698;33;35923;-86
2022/07/13 10:56:19;;;;;;;2.03;1.10;;;;;;;32.58;23.54;99559.47;4346621;33;34704;-87
2022/07/13 10:58:49;;;;;;;8.13;1.48;;;;;;;33.36;22.73;99548.03;4348086;33;33398;-83
2022/07/13 11:01:48;;;;;;;2.75;1.00;;;;;;;32.81;23.44;99537.47;4346541;33;34728;-86
2022/07/13 11:04:18;;;;;;;2.80;0.80;;;;;;;33.47;22.98;99554.16;4347949;33;35198;-87
2022/07/13 11:07:05;;;;;;;10.15;1.48;;;;;;;33.58;21.64;99567.41;4326971;33;34330;-87
2022/07/13 11:09:33;;;;;;;2.92;0.93;;;;;;;33.23;21.24;99563.78;4347355;33;33483;-86
2022/07/13 11:12:01;;;;;;;3.37;0.95;;;;;;;33.05;22.11;99551.13;4346062;33;34068;-85
2022/07/13 11:14:35;;;;;;;0.90;0.65;;;;;;;33.20;20.91;99545.22;4347935;33;35953;-88
2022/07/13 11:17:13;;;;;;;1.70;0.77;;;;;;;33.99;19.82;99546.00;4332073;33;35332;-84
2022/07/13 11:19:50;;;;;;;2.87;0.90;;;;;;;33.56;20.17;99555.91;4331844;33;33303;-82
2022/07/13 11:22:26;;;;;;;3.75;1.12;;;;;;;33.39;19.84;99554.94;4327812;33;34000;-80
2022/07/13 11:25:14;;;;;;;0.93;0.90;;;;;;;33.14;20.12;99548.53;4332438;33;35102;-86
2022/07/13 11:28:14;;;;;;;2.97;1.00;;;;;;;32.73;22.08;99550.84;4324519;33;34667;-82
2022/07/13 11:30:44;;;;;;;2.97;0.80;;;;;;;32.98;22.26;99538.44;4337349;33;33446;-80
2022/07/13 11:33:16;;;;;;;5.57;1.12;;;;;;;33.16;20.94;99541.13;4323565;33;33250;-80
2022/07/13 11:35:47;;;;;;;5.65;1.33;;;;;;;33.57;22.85;99536.00;4333456;33;35157;-81
2022/07/13 11:38:19;;;;;;;7.00;0.98;;;;;;;32.96;22.69;99535.87;4319862;33;34580;-79
2022/07/13 11:41:01;;;;;;;2.17;0.90;;;;;;;33.44;19.84;99533.72;4324370;33;33429;-79
2022/07/13 11:43:49;;;;;;;1.23;0.88;;;;;;;33.24;20.52;99520.44;4345707;33;34757;-83
2022/07/13 11:46:25;;;;;;;5.90;1.12;;;;;;;32.82;21.16;99517.56;4338427;33;35200;-81
2022/07/13 11:49:01;;;;;;;5.18;1.00;;;;;;;32.61;21.21;99521.41;4346090;33;35335;-81
2022/07/13 11:51:34;;;;;;;3.90;0.85;;;;;;;32.59;20.95;99522.56;4346014;33;34419;-80
2022/07/13 11:54:13;;;;;;;1.40;0.80;;;;;;;33.18;19.98;99517.53;4347499;33;33927;-81
2022/07/13 11:56:55;;;;;;;4.43;1.10;;;;;;;32.68;19.10;99514.44;4345899;33;35001;-81